AAL813 KMIA-KEYW
Flight info
| Callsign | AAL813 |
|---|---|
| Flight time | 0h 37m |
| Altitude | 20000 |
| Route | MAYNR3 MAYNR FNTSY FNTSY1 |
| Aircraft | A319/M-SDE3FGHIRWY/LB1 |
Departure
| Time | 2026-05-04 02:28 |
|---|---|
| Airport | Miami International Airport (KMIA) |
Arrival
| Time | 2026-05-04 03:05 |
|---|---|
| Airport | Key West International Airport (KEYW) |
| Time | Latitude | Longitude | Altitude | Speed | Heading |
|---|---|---|---|---|---|
| 2026-05-04 02:15 | 25.79817 | -80.28317 | 16 ft | 0 kts | 178° |
| 2026-05-04 02:21 | 25.79828 | -80.28317 | 17 ft | 3 kts | 178° |
| 2026-05-04 02:21 | 25.79847 | -80.28318 | 16 ft | 3 kts | 178° |
| 2026-05-04 02:22 | 25.79866 | -80.28318 | 19 ft | 3 kts | 208° |
| 2026-05-04 02:22 | 25.79881 | -80.28304 | 15 ft | 3 kts | 253° |
| 2026-05-04 02:22 | 25.79883 | -80.28295 | 15 ft | 0 kts | 271° |
| 2026-05-04 02:23 | 25.79883 | -80.28299 | 15 ft | 1 kts | 270° |
| 2026-05-04 02:24 | 25.79883 | -80.28337 | 16 ft | 13 kts | 270° |
| 2026-05-04 02:24 | 25.79906 | -80.28427 | 18 ft | 13 kts | 310° |
| 2026-05-04 02:24 | 25.79946 | -80.28520 | 17 ft | 14 kts | 268° |
| 2026-05-04 02:24 | 25.79943 | -80.28630 | 20 ft | 15 kts | 268° |
| 2026-05-04 02:25 | 25.79936 | -80.28747 | 22 ft | 15 kts | 263° |
| 2026-05-04 02:25 | 25.79931 | -80.28872 | 22 ft | 17 kts | 269° |
| 2026-05-04 02:25 | 25.79926 | -80.29015 | 21 ft | 20 kts | 266° |
| 2026-05-04 02:25 | 25.79917 | -80.29173 | 21 ft | 22 kts | 266° |
| 2026-05-04 02:26 | 25.79912 | -80.29348 | 18 ft | 24 kts | 268° |
| 2026-05-04 02:26 | 25.79904 | -80.29549 | 15 ft | 27 kts | 267° |
| 2026-05-04 02:26 | 25.79895 | -80.29741 | 13 ft | 24 kts | 267° |
| 2026-05-04 02:26 | 25.79900 | -80.29926 | 13 ft | 25 kts | 292° |
| 2026-05-04 02:27 | 25.79978 | -80.30083 | 14 ft | 13 kts | 296° |
| 2026-05-04 02:27 | 25.80045 | -80.30111 | 15 ft | 11 kts | 29° |
| 2026-05-04 02:27 | 25.80074 | -80.30013 | 13 ft | 22 kts | 83° |
| 2026-05-04 02:27 | 25.80098 | -80.29502 | 15 ft | 106 kts | 87° |
| 2026-05-04 02:28 | 25.80147 | -80.28444 | 119 ft | 158 kts | 85° |
| 2026-05-04 02:28 | 25.80240 | -80.27214 | 858 ft | 160 kts | 83° |
| 2026-05-04 02:28 | 25.80199 | -80.25991 | 1572 ft | 163 kts | 105° |
| 2026-05-04 02:28 | 25.79597 | -80.24867 | 2059 ft | 183 kts | 137° |
| 2026-05-04 02:29 | 25.78557 | -80.23902 | 2492 ft | 206 kts | 141° |
| 2026-05-04 02:29 | 25.77413 | -80.22817 | 2948 ft | 226 kts | 140° |
| 2026-05-04 02:29 | 25.76168 | -80.21615 | 3549 ft | 244 kts | 140° |
| 2026-05-04 02:29 | 25.74831 | -80.20417 | 4421 ft | 249 kts | 149° |
| 2026-05-04 02:30 | 25.73275 | -80.19561 | 5310 ft | 251 kts | 164° |
| 2026-05-04 02:30 | 25.71575 | -80.19155 | 6227 ft | 252 kts | 178° |
| 2026-05-04 02:30 | 25.69761 | -80.19079 | 6897 ft | 269 kts | 182° |
| 2026-05-04 02:30 | 25.67863 | -80.19028 | 7779 ft | 276 kts | 184° |
| 2026-05-04 02:31 | 25.65946 | -80.19243 | 8771 ft | 279 kts | 191° |
| 2026-05-04 02:31 | 25.64002 | -80.19515 | 9798 ft | 284 kts | 191° |
| 2026-05-04 02:31 | 25.62063 | -80.19948 | 10652 ft | 286 kts | 201° |
| 2026-05-04 02:31 | 25.60196 | -80.20879 | 11091 ft | 306 kts | 213° |
| 2026-05-04 02:32 | 25.58289 | -80.22099 | 11586 ft | 324 kts | 213° |
| 2026-05-04 02:32 | 25.56315 | -80.23362 | 12364 ft | 331 kts | 212° |
| 2026-05-04 02:32 | 25.54309 | -80.24640 | 13213 ft | 335 kts | 212° |
| 2026-05-04 02:32 | 25.52275 | -80.25929 | 14045 ft | 339 kts | 212° |
| 2026-05-04 02:33 | 25.50217 | -80.27227 | 14827 ft | 342 kts | 212° |
| 2026-05-04 02:33 | 25.48142 | -80.28532 | 15629 ft | 345 kts | 213° |
| 2026-05-04 02:33 | 25.46048 | -80.29847 | 16418 ft | 348 kts | 213° |
| 2026-05-04 02:33 | 25.43937 | -80.31176 | 17198 ft | 351 kts | 213° |
| 2026-05-04 02:34 | 25.41808 | -80.32516 | 17977 ft | 354 kts | 213° |
| 2026-05-04 02:34 | 25.39663 | -80.33866 | 18687 ft | 356 kts | 213° |
| 2026-05-04 02:34 | 25.37501 | -80.35228 | 19348 ft | 359 kts | 213° |
| 2026-05-04 02:34 | 25.35318 | -80.36604 | 19842 ft | 362 kts | 214° |
| 2026-05-04 02:35 | 25.33130 | -80.37983 | 20002 ft | 362 kts | 214° |
| 2026-05-04 02:35 | 25.30922 | -80.39375 | 20051 ft | 371 kts | 214° |
| 2026-05-04 02:35 | 25.28666 | -80.40794 | 20053 ft | 374 kts | 214° |
| 2026-05-04 02:35 | 25.26404 | -80.42213 | 20052 ft | 374 kts | 213° |
| 2026-05-04 02:36 | 25.24127 | -80.43609 | 20054 ft | 376 kts | 210° |
| 2026-05-04 02:36 | 25.21664 | -80.44648 | 20055 ft | 382 kts | 201° |
| 2026-05-04 02:36 | 25.19115 | -80.45478 | 20052 ft | 382 kts | 201° |
| 2026-05-04 02:36 | 25.16567 | -80.46306 | 20053 ft | 382 kts | 201° |
| 2026-05-04 02:37 | 25.14017 | -80.47137 | 20054 ft | 382 kts | 201° |
| 2026-05-04 02:37 | 25.11469 | -80.47971 | 20051 ft | 382 kts | 201° |
| 2026-05-04 02:37 | 25.08921 | -80.48808 | 20050 ft | 382 kts | 201° |
| 2026-05-04 02:37 | 25.06373 | -80.49645 | 20048 ft | 382 kts | 201° |
| 2026-05-04 02:38 | 25.03827 | -80.50479 | 20047 ft | 382 kts | 201° |
| 2026-05-04 02:38 | 25.02139 | -80.51032 | 20047 ft | 382 kts | 201° |
| 2026-05-04 02:38 | 24.99589 | -80.51867 | 20045 ft | 382 kts | 201° |
| 2026-05-04 02:38 | 24.97037 | -80.52703 | 20044 ft | 382 kts | 201° |
| 2026-05-04 02:39 | 24.94491 | -80.53534 | 20041 ft | 382 kts | 201° |
| 2026-05-04 02:39 | 24.91939 | -80.54364 | 20042 ft | 382 kts | 201° |
| 2026-05-04 02:39 | 24.89387 | -80.55195 | 20039 ft | 382 kts | 201° |
| 2026-05-04 02:39 | 24.86892 | -80.56170 | 20037 ft | 378 kts | 210° |
| 2026-05-04 02:40 | 24.84715 | -80.57728 | 20036 ft | 371 kts | 224° |
| 2026-05-04 02:40 | 24.82985 | -80.59801 | 20039 ft | 365 kts | 237° |
| 2026-05-04 02:40 | 24.81796 | -80.62211 | 20053 ft | 355 kts | 249° |
| 2026-05-04 02:40 | 24.81176 | -80.64826 | 20051 ft | 354 kts | 261° |
| 2026-05-04 02:41 | 24.80886 | -80.67512 | 20055 ft | 353 kts | 262° |
| 2026-05-04 02:41 | 24.80590 | -80.70198 | 20053 ft | 353 kts | 262° |
| 2026-05-04 02:41 | 24.80287 | -80.72882 | 20055 ft | 353 kts | 262° |
| 2026-05-04 02:41 | 24.79981 | -80.75563 | 20053 ft | 353 kts | 262° |
| 2026-05-04 02:42 | 24.79673 | -80.78240 | 19910 ft | 352 kts | 262° |
| 2026-05-04 02:42 | 24.79362 | -80.80951 | 18981 ft | 363 kts | 262° |
| 2026-05-04 02:42 | 24.79041 | -80.83725 | 18063 ft | 366 kts | 262° |
| 2026-05-04 02:42 | 24.78718 | -80.86493 | 17037 ft | 364 kts | 262° |
| 2026-05-04 02:43 | 24.78399 | -80.89246 | 16107 ft | 361 kts | 262° |
| 2026-05-04 02:43 | 24.78089 | -80.91969 | 15212 ft | 357 kts | 262° |
| 2026-05-04 02:43 | 24.77782 | -80.94665 | 14330 ft | 353 kts | 262° |
| 2026-05-04 02:43 | 24.77477 | -80.97334 | 13400 ft | 350 kts | 262° |
| 2026-05-04 02:44 | 24.77170 | -80.99974 | 12430 ft | 345 kts | 261° |
| 2026-05-04 02:44 | 24.76543 | -81.02496 | 11491 ft | 341 kts | 247° |
| 2026-05-04 02:44 | 24.75411 | -81.04763 | 10709 ft | 334 kts | 238° |
| 2026-05-04 02:44 | 24.74211 | -81.06875 | 10437 ft | 314 kts | 239° |
| 2026-05-04 02:45 | 24.73111 | -81.08838 | 10316 ft | 290 kts | 239° |
| 2026-05-04 02:45 | 24.72086 | -81.10680 | 10002 ft | 277 kts | 239° |
| 2026-05-04 02:45 | 24.71101 | -81.12460 | 9745 ft | 271 kts | 239° |
| 2026-05-04 02:45 | 24.70119 | -81.14231 | 9614 ft | 271 kts | 239° |
| 2026-05-04 02:46 | 24.69137 | -81.15997 | 9449 ft | 271 kts | 239° |
| 2026-05-04 02:46 | 24.68151 | -81.17763 | 9156 ft | 271 kts | 239° |
| 2026-05-04 02:46 | 24.67168 | -81.19520 | 8750 ft | 269 kts | 239° |
| 2026-05-04 02:46 | 24.66188 | -81.21270 | 8354 ft | 268 kts | 239° |
| 2026-05-04 02:47 | 24.65212 | -81.23011 | 8035 ft | 266 kts | 239° |
| 2026-05-04 02:47 | 24.64106 | -81.24638 | 7991 ft | 267 kts | 230° |
| 2026-05-04 02:47 | 24.62885 | -81.26185 | 7995 ft | 268 kts | 230° |
| 2026-05-04 02:47 | 24.61664 | -81.27739 | 7995 ft | 268 kts | 230° |
| 2026-05-04 02:48 | 24.60445 | -81.29290 | 7991 ft | 268 kts | 230° |
| 2026-05-04 02:48 | 24.59227 | -81.30839 | 7992 ft | 268 kts | 230° |
| 2026-05-04 02:48 | 24.58008 | -81.32392 | 7990 ft | 268 kts | 230° |
| 2026-05-04 02:48 | 24.56789 | -81.33946 | 7989 ft | 269 kts | 230° |
| 2026-05-04 02:49 | 24.55680 | -81.35586 | 7992 ft | 268 kts | 241° |
| 2026-05-04 02:49 | 24.54819 | -81.37403 | 7999 ft | 268 kts | 243° |
| 2026-05-04 02:49 | 24.53965 | -81.39217 | 7995 ft | 268 kts | 243° |
| 2026-05-04 02:49 | 24.53108 | -81.41034 | 7997 ft | 268 kts | 243° |
| 2026-05-04 02:50 | 24.52261 | -81.42822 | 7996 ft | 268 kts | 243° |
| 2026-05-04 02:50 | 24.51406 | -81.44623 | 7700 ft | 263 kts | 243° |
| 2026-05-04 02:50 | 24.50560 | -81.46402 | 7085 ft | 263 kts | 243° |
| 2026-05-04 02:50 | 24.49706 | -81.48196 | 6483 ft | 261 kts | 243° |
| 2026-05-04 02:51 | 24.48880 | -81.49934 | 5828 ft | 260 kts | 243° |
| 2026-05-04 02:51 | 24.48049 | -81.51691 | 5195 ft | 258 kts | 243° |
| 2026-05-04 02:51 | 24.47226 | -81.53435 | 4871 ft | 256 kts | 243° |
| 2026-05-04 02:51 | 24.46612 | -81.55278 | 4748 ft | 258 kts | 258° |
| 2026-05-04 02:52 | 24.46455 | -81.57243 | 4618 ft | 259 kts | 269° |
| 2026-05-04 02:52 | 24.46447 | -81.59218 | 4496 ft | 259 kts | 269° |
| 2026-05-04 02:52 | 24.46432 | -81.61196 | 4380 ft | 259 kts | 269° |
| 2026-05-04 02:52 | 24.46414 | -81.63169 | 4257 ft | 258 kts | 269° |
| 2026-05-04 02:53 | 24.46394 | -81.65110 | 4123 ft | 250 kts | 269° |
| 2026-05-04 02:53 | 24.46373 | -81.66969 | 3994 ft | 237 kts | 269° |
| 2026-05-04 02:53 | 24.46354 | -81.68721 | 3978 ft | 221 kts | 268° |
| 2026-05-04 02:53 | 24.46338 | -81.70351 | 3998 ft | 207 kts | 268° |
| 2026-05-04 02:54 | 24.46322 | -81.71872 | 4003 ft | 192 kts | 268° |
| 2026-05-04 02:54 | 24.46309 | -81.73301 | 3925 ft | 184 kts | 269° |
| 2026-05-04 02:54 | 24.46295 | -81.74690 | 3803 ft | 181 kts | 268° |
| 2026-05-04 02:54 | 24.46281 | -81.76063 | 3687 ft | 179 kts | 268° |
| 2026-05-04 02:55 | 24.46251 | -81.78804 | 3448 ft | 179 kts | 269° |
| 2026-05-04 02:55 | 24.46238 | -81.80164 | 3317 ft | 178 kts | 269° |
| 2026-05-04 02:55 | 24.46225 | -81.81530 | 3195 ft | 180 kts | 269° |
| 2026-05-04 02:56 | 24.46212 | -81.82899 | 3095 ft | 181 kts | 268° |
| 2026-05-04 02:56 | 24.46198 | -81.84317 | 2982 ft | 190 kts | 269° |
| 2026-05-04 02:56 | 24.46182 | -81.85789 | 2947 ft | 191 kts | 270° |
| 2026-05-04 02:56 | 24.46166 | -81.87213 | 3005 ft | 184 kts | 267° |
| 2026-05-04 02:57 | 24.46150 | -81.88616 | 2997 ft | 183 kts | 269° |
| 2026-05-04 02:57 | 24.46135 | -81.89992 | 2999 ft | 179 kts | 269° |
| 2026-05-04 02:57 | 24.46120 | -81.91357 | 3004 ft | 179 kts | 269° |
| 2026-05-04 02:57 | 24.46106 | -81.92726 | 3008 ft | 180 kts | 269° |
| 2026-05-04 02:58 | 24.46094 | -81.94095 | 3004 ft | 179 kts | 269° |
| 2026-05-04 02:58 | 24.46392 | -81.95418 | 3008 ft | 182 kts | 298° |
| 2026-05-04 02:58 | 24.47298 | -81.96392 | 2974 ft | 187 kts | 329° |
| 2026-05-04 02:58 | 24.48543 | -81.96701 | 2857 ft | 184 kts | 356° |
| 2026-05-04 02:59 | 24.49790 | -81.96705 | 2730 ft | 175 kts | 356° |
| 2026-05-04 02:59 | 24.50978 | -81.96716 | 2631 ft | 166 kts | 356° |
| 2026-05-04 02:59 | 24.52107 | -81.96729 | 2530 ft | 158 kts | 355° |
| 2026-05-04 02:59 | 24.53169 | -81.96741 | 2452 ft | 149 kts | 354° |
| 2026-05-04 03:00 | 24.54167 | -81.96509 | 2364 ft | 149 kts | 21° |
| 2026-05-04 03:00 | 24.54969 | -81.95793 | 2277 ft | 151 kts | 50° |
| 2026-05-04 03:00 | 24.55394 | -81.94728 | 2199 ft | 155 kts | 79° |
| 2026-05-04 03:00 | 24.55428 | -81.93574 | 2123 ft | 149 kts | 89° |
| 2026-05-04 03:01 | 24.55438 | -81.92458 | 2044 ft | 144 kts | 88° |
| 2026-05-04 03:01 | 24.55449 | -81.91370 | 1975 ft | 140 kts | 89° |
| 2026-05-04 03:01 | 24.55462 | -81.90290 | 1882 ft | 142 kts | 89° |
| 2026-05-04 03:01 | 24.55474 | -81.89213 | 1818 ft | 140 kts | 88° |
| 2026-05-04 03:02 | 24.55486 | -81.88139 | 1734 ft | 141 kts | 89° |
| 2026-05-04 03:02 | 24.55499 | -81.87067 | 1657 ft | 140 kts | 87° |
| 2026-05-04 03:02 | 24.55511 | -81.86002 | 1585 ft | 140 kts | 88° |
| 2026-05-04 03:02 | 24.55523 | -81.84938 | 1502 ft | 139 kts | 88° |
| 2026-05-04 03:03 | 24.55533 | -81.83864 | 1320 ft | 141 kts | 89° |
| 2026-05-04 03:03 | 24.55543 | -81.82795 | 1105 ft | 138 kts | 88° |
| 2026-05-04 03:03 | 24.55555 | -81.81739 | 938 ft | 139 kts | 85° |
| 2026-05-04 03:03 | 24.55564 | -81.80690 | 755 ft | 137 kts | 89° |
| 2026-05-04 03:04 | 24.55573 | -81.79643 | 621 ft | 136 kts | 88° |
| 2026-05-04 03:04 | 24.55579 | -81.78601 | 433 ft | 135 kts | 89° |
| 2026-05-04 03:04 | 24.55594 | -81.77600 | 191 ft | 131 kts | 88° |
| 2026-05-04 03:04 | 24.55604 | -81.76610 | 30 ft | 128 kts | 89° |
| 2026-05-04 03:05 | 24.55617 | -81.75742 | 14 ft | 66 kts | 89° |
| 2026-05-04 03:05 | 24.55618 | -81.75567 | 18 ft | 22 kts | 90° |
| 2026-05-04 03:05 | 24.55619 | -81.75358 | 16 ft | 18 kts | 89° |
| 2026-05-04 03:05 | 24.55595 | -81.75256 | 15 ft | 8 kts | 165° |
| 2026-05-04 03:06 | 24.55539 | -81.75270 | 16 ft | 9 kts | 195° |
| 2026-05-04 03:06 | 24.55496 | -81.75340 | 19 ft | 10 kts | 246° |
| 2026-05-04 03:06 | 24.55476 | -81.75419 | 17 ft | 8 kts | 231° |
| 2026-05-04 03:06 | 24.55475 | -81.75421 | 17 ft | 0 kts | 230° |